createdAt,value
2023-12-03T00:00:08.951Z,101252.06
2023-12-03T00:03:13.805Z,101248.38
2023-12-03T00:06:17.067Z,101264.88
2023-12-03T00:09:21.515Z,101260.50
2023-12-03T00:12:24.470Z,101252.59
2023-12-03T00:15:27.364Z,101255.47
2023-12-03T00:18:31.274Z,101260.69
2023-12-03T00:21:34.422Z,101264.22
2023-12-03T00:24:38.665Z,101267.91
2023-12-03T00:27:41.749Z,101271.94
2023-12-03T00:30:44.606Z,101282.03
2023-12-03T00:33:48.969Z,101277.34
2023-12-03T00:36:51.906Z,101281.88
2023-12-03T00:39:56.116Z,101282.56
2023-12-03T00:42:59.144Z,101292.50
2023-12-03T00:46:03.822Z,101292.84
2023-12-03T00:49:06.935Z,101298.88
2023-12-03T00:52:09.769Z,101294.84
2023-12-03T00:55:14.290Z,101306.44
2023-12-03T00:58:17.193Z,101295.19
2023-12-03T01:01:21.681Z,101304.78
2023-12-03T01:04:24.459Z,101314.22
2023-12-03T01:07:27.544Z,101305.28
2023-12-03T01:10:32.429Z,101307.13
2023-12-03T01:13:35.210Z,101309.50
2023-12-03T01:16:38.089Z,101309.81
2023-12-03T01:19:40.927Z,101317.03
2023-12-03T01:22:43.938Z,101315.69
2023-12-03T01:25:48.245Z,101318.75
2023-12-03T01:28:51.160Z,101325.47
2023-12-03T01:31:53.977Z,101345.19
2023-12-03T01:34:56.793Z,101338.91
2023-12-03T01:37:59.634Z,101349.84
2023-12-03T01:41:03.809Z,101346.00
2023-12-03T01:44:07.371Z,101349.19
2023-12-03T01:47:10.588Z,101345.84
2023-12-03T01:50:14.575Z,101360.63
2023-12-03T01:53:19.086Z,101349.03
2023-12-03T01:56:23.269Z,101358.28
2023-12-03T01:59:26.715Z,101355.44
2023-12-03T02:02:30.958Z,101358.97
2023-12-03T02:05:34.080Z,101366.22
2023-12-03T02:08:38.190Z,101366.06
2023-12-03T02:11:42.762Z,101368.41
2023-12-03T02:14:45.584Z,101378.34
2023-12-03T02:17:48.965Z,101374.97
2023-12-03T02:20:51.839Z,101383.72
2023-12-03T02:23:56.086Z,101371.63
2023-12-03T02:26:59.495Z,101384.09
2023-12-03T02:30:03.018Z,101392.16
2023-12-03T02:33:06.769Z,101382.09
2023-12-03T02:36:10.730Z,101386.78
2023-12-03T02:39:14.979Z,101388.09
2023-12-03T02:42:17.978Z,101393.19
2023-12-03T02:45:20.807Z,101389.44
2023-12-03T02:48:24.992Z,101390.97
2023-12-03T02:51:27.919Z,101389.94
2023-12-03T02:54:32.189Z,101390.44
2023-12-03T02:57:35.142Z,101395.81
2023-12-03T03:00:38.226Z,101407.94
2023-12-03T03:03:41.208Z,101411.97
2023-12-03T03:06:44.050Z,101414.84
2023-12-03T03:09:48.293Z,101410.81
2023-12-03T03:12:51.098Z,101403.41
2023-12-03T03:15:55.103Z,101402.56
2023-12-03T03:18:58.101Z,101403.13
2023-12-03T03:22:01.000Z,101406.66
2023-12-03T03:25:05.979Z,101405.09
2023-12-03T03:28:08.660Z,101410.84
2023-12-03T03:31:11.684Z,101410.00
2023-12-03T03:34:14.551Z,101405.81
2023-12-03T03:37:18.700Z,101406.31
2023-12-03T03:40:22.778Z,101417.25
2023-12-03T03:43:25.593Z,101414.59
2023-12-03T03:46:28.409Z,101414.25
2023-12-03T03:49:31.400Z,101412.91
2023-12-03T03:52:34.351Z,101412.72
2023-12-03T03:55:38.599Z,101411.88
2023-12-03T03:58:41.510Z,101416.13
2023-12-03T04:01:45.268Z,101413.72
2023-12-03T04:04:48.573Z,101410.38
2023-12-03T04:07:51.340Z,101415.09
2023-12-03T04:10:55.686Z,101418.78
2023-12-03T04:13:58.416Z,101424.53
2023-12-03T04:17:01.250Z,101424.69
2023-12-03T04:20:05.676Z,101431.25
2023-12-03T04:23:08.563Z,101431.44
2023-12-03T04:26:13.631Z,101433.78
2023-12-03T04:29:16.426Z,101435.13
2023-12-03T04:32:19.220Z,101436.16
2023-12-03T04:35:22.105Z,101432.78
2023-12-03T04:38:24.800Z,101442.56
2023-12-03T04:41:35.871Z,101434.63
2023-12-03T04:44:38.591Z,101439.84
2023-12-03T04:47:41.508Z,101445.59
2023-12-03T04:50:44.395Z,101438.34
2023-12-03T04:53:47.272Z,101439.53
2023-12-03T04:56:51.432Z,101449.13
2023-12-03T04:59:54.182Z,101454.69
2023-12-03T05:02:56.967Z,101450.81
2023-12-03T05:05:59.747Z,101455.88
2023-12-03T05:09:02.647Z,101449.28
2023-12-03T05:12:07.146Z,101450.13
2023-12-03T05:15:11.855Z,101455.38
2023-12-03T05:18:15.769Z,101460.06
2023-12-03T05:21:18.630Z,101460.25
2023-12-03T05:24:21.421Z,101466.13
2023-12-03T05:27:25.732Z,101468.34
2023-12-03T05:30:28.809Z,101470.84
2023-12-03T05:33:32.159Z,101484.19
2023-12-03T05:36:34.989Z,101479.97
2023-12-03T05:39:39.566Z,101487.88
2023-12-03T05:42:43.848Z,101489.25
2023-12-03T05:45:46.705Z,101494.09
2023-12-03T05:48:49.617Z,101489.06
2023-12-03T05:51:52.834Z,101497.16
2023-12-03T05:54:55.882Z,101503.91
2023-12-03T05:58:00.156Z,101502.72
2023-12-03T06:01:02.901Z,101506.75
2023-12-03T06:04:08.777Z,101514.69
2023-12-03T06:07:11.892Z,101507.78
2023-12-03T06:10:14.806Z,101514.69
2023-12-03T06:13:19.071Z,101513.28
2023-12-03T06:16:22.288Z,101519.56
2023-12-03T06:19:25.344Z,101518.22
2023-12-03T06:22:28.167Z,101514.31
2023-12-03T06:25:31.048Z,101514.81
2023-12-03T06:28:35.146Z,101513.13
2023-12-03T06:31:38.489Z,101519.19
2023-12-03T06:34:41.665Z,101519.38
2023-12-03T06:37:44.452Z,101521.22
2023-12-03T06:40:47.729Z,101526.44
2023-12-03T06:43:51.956Z,101534.34
2023-12-03T06:46:54.663Z,101538.41
2023-12-03T06:49:57.541Z,101549.50
2023-12-03T06:53:00.426Z,101549.19
2023-12-03T06:56:03.292Z,101549.19
2023-12-03T06:59:07.992Z,101565.00
2023-12-03T07:02:10.865Z,101566.72
2023-12-03T07:05:13.986Z,101571.59
2023-12-03T07:08:16.917Z,101569.44
2023-12-03T07:11:19.827Z,101577.97
2023-12-03T07:14:23.919Z,101580.34
2023-12-03T07:17:26.685Z,101585.22
2023-12-03T07:20:29.452Z,101591.00
2023-12-03T07:23:32.163Z,101598.03
2023-12-03T07:26:35.056Z,101592.09
2023-12-03T07:29:39.268Z,101593.94
2023-12-03T07:32:42.284Z,101602.19
2023-12-03T07:35:45.204Z,101603.03
2023-12-03T07:38:48.106Z,101600.97
2023-12-03T07:41:52.417Z,101611.56
2023-12-03T07:44:56.637Z,101615.31
2023-12-03T07:47:59.399Z,101621.38
2023-12-03T07:51:02.298Z,101619.50
2023-12-03T07:54:05.522Z,101632.66
2023-12-03T07:57:08.239Z,101624.63
2023-12-03T08:00:13.598Z,101619.31
2023-12-03T08:03:16.469Z,101626.50
2023-12-03T08:06:19.324Z,101629.84
2023-12-03T08:09:22.156Z,101627.34
2023-12-03T08:12:25.094Z,101631.28
2023-12-03T08:15:29.366Z,101633.66
2023-12-03T08:18:32.614Z,101629.38
2023-12-03T08:21:37.766Z,101637.59
2023-12-03T08:24:40.738Z,101638.59
2023-12-03T08:27:44.063Z,101654.59
2023-12-03T08:30:48.846Z,101643.81
2023-12-03T08:33:51.707Z,101645.72
2023-12-03T08:36:54.689Z,101647.13
2023-12-03T08:39:57.555Z,101653.84
2023-12-03T08:43:00.414Z,101655.00
2023-12-03T08:46:05.248Z,101664.00
2023-12-03T08:49:08.090Z,101664.25
2023-12-03T08:52:11.834Z,101664.84
2023-12-03T08:55:14.620Z,101665.88
2023-12-03T08:58:17.675Z,101669.06
2023-12-03T09:01:22.327Z,101671.75
2023-12-03T09:04:25.281Z,101672.53
2023-12-03T09:07:31.852Z,101680.16
2023-12-03T09:10:34.710Z,101682.63
2023-12-03T09:13:37.416Z,101680.50
2023-12-03T09:16:41.791Z,101684.63
2023-12-03T09:19:44.630Z,101692.53
2023-12-03T09:22:47.431Z,101693.06
2023-12-03T09:25:50.184Z,101693.47
2023-12-03T09:28:53.058Z,101693.41
2023-12-03T09:31:57.360Z,101701.56
2023-12-03T09:35:00.258Z,101708.25
2023-12-03T09:38:02.964Z,101705.28
2023-12-03T09:41:10.890Z,101709.88
2023-12-03T09:44:22.118Z,101703.66
2023-12-03T09:47:28.789Z,101691.69
2023-12-03T09:50:32.192Z,101693.31
2023-12-03T09:53:39.623Z,101705.72
2023-12-03T09:56:44.155Z,101706.56
2023-12-03T09:59:48.952Z,101704.59
2023-12-03T10:02:55.345Z,101700.53
2023-12-03T10:05:59.296Z,101701.53
2023-12-03T10:09:04.026Z,101705.63
2023-12-03T10:12:09.089Z,101696.91
2023-12-03T10:15:12.848Z,101699.22
2023-12-03T10:18:17.814Z,101712.03
2023-12-03T10:21:20.677Z,101710.16
2023-12-03T10:24:23.890Z,101710.91
2023-12-03T10:27:30.547Z,101705.66
2023-12-03T10:30:34.233Z,101707.69
2023-12-03T10:33:39.657Z,101705.00
2023-12-03T10:36:43.920Z,101703.53
2023-12-03T10:39:47.045Z,101710.91
2023-12-03T10:42:49.900Z,101708.06
2023-12-03T10:45:55.423Z,101706.69
2023-12-03T10:49:00.441Z,101711.09
2023-12-03T10:52:04.472Z,101720.09
2023-12-03T10:55:08.945Z,101720.56
2023-12-03T10:58:15.447Z,101716.72
2023-12-03T11:01:22.410Z,101718.69
2023-12-03T11:04:37.510Z,101721.25
2023-12-03T11:07:40.610Z,101728.34
2023-12-03T11:10:45.827Z,101730.88
2023-12-03T11:13:50.933Z,101725.66
2023-12-03T11:17:05.052Z,101722.50
2023-12-03T11:20:15.246Z,101731.22
2023-12-03T11:23:34.914Z,101730.41
2023-12-03T11:26:38.982Z,101733.28
2023-12-03T11:29:49.493Z,101738.00
2023-12-03T11:32:55.396Z,101743.06
2023-12-03T11:36:01.257Z,101745.59
2023-12-03T11:39:04.587Z,101748.41
2023-12-03T11:42:07.386Z,101752.75
2023-12-03T11:45:24.971Z,101761.78
2023-12-03T11:48:30.761Z,101774.25
2023-12-03T11:51:35.159Z,101776.75
2023-12-03T11:54:40.924Z,101774.50
2023-12-03T11:57:45.157Z,101779.56
2023-12-03T12:00:48.473Z,101779.69
2023-12-03T12:03:51.417Z,101779.66
2023-12-03T12:06:56.972Z,101769.44
2023-12-03T12:09:59.825Z,101778.16
2023-12-03T12:13:06.239Z,101775.22
2023-12-03T12:16:11.392Z,101774.94
2023-12-03T12:19:15.188Z,101772.22
2023-12-03T12:22:19.934Z,101774.94
2023-12-03T12:25:23.773Z,101771.44
2023-12-03T12:28:27.516Z,101775.63
2023-12-03T12:31:30.860Z,101781.38
2023-12-03T12:34:35.499Z,101780.16
2023-12-03T12:37:41.210Z,101777.41
2023-12-03T12:40:54.810Z,101781.97
2023-12-03T12:43:59.191Z,101777.91
2023-12-03T12:47:01.979Z,101781.13
2023-12-03T12:50:05.988Z,101781.13
2023-12-03T12:53:10.275Z,101782.25
2023-12-03T12:56:13.342Z,101784.44
2023-12-03T12:59:18.246Z,101788.31
2023-12-03T13:02:22.242Z,101792.03
2023-12-03T13:05:26.718Z,101785.63
2023-12-03T13:08:30.964Z,101785.47
2023-12-03T13:11:33.709Z,101783.88
2023-12-03T13:14:36.948Z,101788.78
2023-12-03T13:17:47.256Z,101790.03
2023-12-03T13:20:50.376Z,101787.94
2023-12-03T13:23:54.589Z,101781.19
2023-12-03T13:26:57.485Z,101790.56
2023-12-03T13:30:00.363Z,101793.38
2023-12-03T13:36:23.542Z,101789.91
2023-12-03T13:39:27.756Z,101801.69
2023-12-03T13:42:31.358Z,101791.31
2023-12-03T13:45:35.281Z,101802.31
2023-12-03T13:48:38.287Z,101792.03
2023-12-03T13:51:41.119Z,101794.28
2023-12-03T13:54:45.924Z,101800.69
2023-12-03T13:57:48.829Z,101811.81
2023-12-03T14:00:51.696Z,101816.84
2023-12-03T14:03:54.596Z,101819.78
2023-12-03T14:06:57.558Z,101823.81
2023-12-03T14:10:01.732Z,101825.19
2023-12-03T14:13:04.752Z,101826.94
2023-12-03T14:16:08.272Z,101815.25
2023-12-03T14:19:14.180Z,101825.97
2023-12-03T14:22:18.190Z,101820.81
2023-12-03T14:25:22.468Z,101823.09
2023-12-03T14:28:25.944Z,101820.06
2023-12-03T14:31:31.456Z,101819.97
2023-12-03T14:34:34.639Z,101826.16
2023-12-03T14:37:37.500Z,101837.09
2023-12-03T14:40:41.594Z,101824.72
2023-12-03T14:43:44.409Z,101837.78
2023-12-03T14:46:47.110Z,101849.88
2023-12-03T14:49:49.837Z,101841.38
2023-12-03T14:52:52.762Z,101852.84
2023-12-03T14:55:56.969Z,101851.00
2023-12-03T14:59:01.488Z,101853.25
2023-12-03T15:02:04.482Z,101866.63
2023-12-03T15:05:08.536Z,101864.13
2023-12-03T15:08:11.372Z,101858.69
2023-12-03T15:11:16.132Z,101858.84
2023-12-03T15:14:18.910Z,101855.31
2023-12-03T15:17:21.638Z,101859.69
2023-12-03T15:20:24.591Z,101861.53
2023-12-03T15:23:27.501Z,101867.94
2023-12-03T15:26:31.587Z,101876.31
2023-12-03T15:29:34.503Z,101876.47
2023-12-03T15:32:37.367Z,101878.19
2023-12-03T15:35:40.274Z,101893.31
2023-12-03T15:38:43.034Z,101881.59
2023-12-03T15:41:47.121Z,101888.13
2023-12-03T15:44:49.865Z,101887.69
2023-12-03T15:47:53.157Z,101882.47
2023-12-03T15:50:57.128Z,101886.19
2023-12-03T15:54:00.395Z,101884.84
2023-12-03T15:57:04.694Z,101877.06
2023-12-03T16:00:09.613Z,101877.91
2023-12-03T16:03:13.035Z,101876.59
2023-12-03T16:06:15.816Z,101894.25
2023-12-03T16:09:18.532Z,101891.38
2023-12-03T16:12:23.749Z,101886.78
2023-12-03T16:15:27.201Z,101897.31
2023-12-03T16:18:30.127Z,101889.63
2023-12-03T16:21:33.200Z,101895.53
2023-12-03T16:24:36.110Z,101887.13
2023-12-03T16:27:42.150Z,101885.28
2023-12-03T16:30:45.147Z,101887.50
2023-12-03T16:33:48.351Z,101890.41
2023-12-03T16:36:51.285Z,101891.63
2023-12-03T16:39:54.184Z,101883.56
2023-12-03T16:42:58.423Z,101884.56
2023-12-03T16:46:01.427Z,101890.78
2023-12-03T16:49:04.732Z,101892.63
2023-12-03T16:52:07.752Z,101886.31
2023-12-03T16:55:11.067Z,101890.19
2023-12-03T16:58:15.338Z,101893.41
2023-12-03T17:01:18.174Z,101887.09
2023-12-03T17:04:23.264Z,101881.84
2023-12-03T17:07:26.250Z,101874.38
2023-12-03T17:10:31.260Z,101879.03
2023-12-03T17:13:35.565Z,101882.22
2023-12-03T17:16:39.206Z,101890.47
2023-12-03T17:19:41.975Z,101894.78
2023-12-03T17:22:44.865Z,101891.63
2023-12-03T17:25:48.212Z,101903.63
2023-12-03T17:28:53.385Z,101901.25
2023-12-03T17:31:56.123Z,101894.34
2023-12-03T17:34:59.087Z,101888.84
2023-12-03T17:38:02.058Z,101894.34
2023-12-03T17:41:05.307Z,101896.88
2023-12-03T17:44:09.996Z,101898.78
2023-12-03T17:47:12.983Z,101893.31
2023-12-03T17:50:15.818Z,101885.97
2023-12-03T17:53:19.477Z,101884.56
2023-12-03T17:56:22.416Z,101888.94
2023-12-03T17:59:26.678Z,101882.41
2023-12-03T18:02:29.949Z,101891.19
2023-12-03T18:05:33.160Z,101897.41
2023-12-03T18:08:36.179Z,101897.59
2023-12-03T18:11:43.039Z,101898.59
2023-12-03T18:14:50.070Z,101897.25
2023-12-03T18:17:54.367Z,101904.41
2023-12-03T18:20:58.646Z,101903.03
2023-12-03T18:24:01.579Z,101901.72
2023-12-03T18:27:04.599Z,101906.09
2023-12-03T18:30:10.405Z,101903.41
2023-12-03T18:33:15.870Z,101898.09
2023-12-03T18:36:20.478Z,101900.66
2023-12-03T18:39:23.737Z,101893.59
2023-12-03T18:42:27.883Z,101887.31
2023-12-03T18:45:32.016Z,101889.25
2023-12-03T18:48:35.178Z,101883.72
2023-12-03T18:51:37.991Z,101891.31
2023-12-03T18:54:43.361Z,101885.09
2023-12-03T18:57:46.961Z,101890.47
2023-12-03T19:00:52.008Z,101884.94
2023-12-03T19:03:54.750Z,101889.09
2023-12-03T19:06:57.839Z,101883.47
2023-12-03T19:10:00.965Z,101885.16
2023-12-03T19:13:10.906Z,101889.16
2023-12-03T19:16:21.184Z,101884.00
2023-12-03T19:19:24.114Z,101892.38
2023-12-03T19:22:28.128Z,101898.94
2023-12-03T19:25:32.529Z,101896.56
2023-12-03T19:28:35.374Z,101901.94
2023-12-03T19:31:43.217Z,101903.53
2023-12-03T19:34:46.013Z,101901.19
2023-12-03T19:37:48.790Z,101901.03
2023-12-03T19:40:51.508Z,101904.91
2023-12-03T19:43:54.257Z,101909.91
2023-12-03T19:46:58.479Z,101912.97
2023-12-03T19:50:01.196Z,101913.28
2023-12-03T19:53:05.040Z,101905.44
2023-12-03T19:56:08.478Z,101906.22
2023-12-03T19:59:11.163Z,101898.69
2023-12-03T20:02:15.384Z,101898.13
2023-12-03T20:05:18.437Z,101896.16
2023-12-03T20:08:22.960Z,101894.31
2023-12-03T20:11:25.713Z,101898.97
2023-12-03T20:14:28.600Z,101897.69
2023-12-03T20:17:33.298Z,101897.66
2023-12-03T20:20:36.706Z,101892.22
2023-12-03T20:23:39.440Z,101895.78
2023-12-03T20:26:42.623Z,101889.09
2023-12-03T20:29:45.598Z,101887.78
2023-12-03T20:32:51.492Z,101885.78
2023-12-03T20:35:54.710Z,101886.63
2023-12-03T20:38:57.556Z,101885.78
2023-12-03T20:42:01.267Z,101891.56
2023-12-03T20:45:04.596Z,101884.19
2023-12-03T20:48:09.054Z,101885.03
2023-12-03T20:51:12.832Z,101885.88
2023-12-03T20:54:15.717Z,101888.34
2023-12-03T20:57:18.501Z,101880.19
2023-12-03T21:00:21.586Z,101866.47
2023-12-03T21:03:25.951Z,101864.47
2023-12-03T21:06:28.896Z,101866.31
2023-12-03T21:09:31.919Z,101864.69
2023-12-03T21:12:35.051Z,101872.53
2023-12-03T21:15:38.070Z,101876.59
2023-12-03T21:18:45.468Z,101882.84
2023-12-03T21:21:48.308Z,101879.69
2023-12-03T21:24:51.195Z,101876.63
2023-12-03T21:27:54.585Z,101875.72
2023-12-03T21:30:57.661Z,101859.81
2023-12-03T21:34:01.853Z,101859.94
2023-12-03T21:37:07.107Z,101859.16
2023-12-03T21:40:11.053Z,101854.94
2023-12-03T21:43:14.054Z,101856.47
2023-12-03T21:46:17.157Z,101847.41
2023-12-03T21:49:21.442Z,101844.19
2023-12-03T21:52:25.566Z,101838.63
2023-12-03T21:55:29.062Z,101845.16
2023-12-03T21:58:33.418Z,101841.06
2023-12-03T22:01:37.575Z,101837.16
2023-12-03T22:04:41.709Z,101840.69
2023-12-03T22:07:44.622Z,101838.84
2023-12-03T22:10:48.523Z,101831.22
2023-12-03T22:13:51.357Z,101832.44
2023-12-03T22:16:54.054Z,101834.28
2023-12-03T22:19:58.444Z,101829.25
2023-12-03T22:23:01.198Z,101833.03
2023-12-03T22:26:04.029Z,101838.13
2023-12-03T22:29:06.792Z,101834.38
2023-12-03T22:32:09.764Z,101830.00
2023-12-03T22:35:14.216Z,101819.81
2023-12-03T22:38:16.949Z,101825.53
2023-12-03T22:41:21.601Z,101821.63
2023-12-03T22:44:24.762Z,101815.13
2023-12-03T22:47:29.074Z,101827.88
2023-12-03T22:50:33.869Z,101823.81
2023-12-03T22:53:37.201Z,101823.53
2023-12-03T22:56:40.038Z,101831.47
2023-12-03T22:59:44.392Z,101829.78
2023-12-03T23:02:47.090Z,101835.59
2023-12-03T23:05:51.311Z,101836.75
2023-12-03T23:08:54.037Z,101833.53
2023-12-03T23:11:56.859Z,101837.38
2023-12-03T23:14:59.625Z,101831.16
2023-12-03T23:18:02.745Z,101827.03
2023-12-03T23:21:07.487Z,101814.28
2023-12-03T23:27:30.468Z,101798.47
2023-12-03T23:30:33.509Z,101802.47
2023-12-03T23:33:36.565Z,101807.59
2023-12-03T23:36:42.468Z,101802.34
2023-12-03T23:39:45.281Z,101797.94
2023-12-03T23:42:48.149Z,101785.69
2023-12-03T23:45:51.044Z,101781.72
2023-12-03T23:48:53.866Z,101779.19
2023-12-03T23:51:58.180Z,101771.28
2023-12-03T23:55:01.148Z,101776.50
2023-12-03T23:58:04.205Z,101768.16
